Grants Pass, Oregon
Current Conditions -  °F | °C
As of 9:56 PM on Sunday 28 Dec 2014 (Local Time) from KSXT Reporting Station
Light Snow Light Snow  
Wind Chill: 25°   Ceiling: 200
Heat Index: 30°   Visibility: 0.5mi
Dew Point: 30°   Wind: 5mph
Humidity: 100%   Direction: NA
Pressure: 30.2"   Gusts: NA
Location:  42.44°N, 123.32°W
Report Text: KSXT 290556Z AUTO VRB04KT 1/2SM -SN FZFG VV002 M01/M01 A3020 RMK AO2 SNB55 SLP255 P0000 60000 I6000 T10111011 10000 21011 55003 $
Loading
Personal Weather Stations






























Interactive Weather Map New forecast layout! Learn more

10-Day Weather Forecast

Advertisements
Track Severe Weather on mobile